Time,TemperatureF,DewpointF,PressureIn,WindDirection,WindDirectionDegrees,WindSpeedMPH,WindSpeedGustMPH,Humidity,HourlyPrecipIn,Conditions,Clouds,dailyrainin,SoftwareType,DateUTC
2013-03-26 00:14:00,37.5,29.0,29.59,SE,128,0.0,-999.0,72,-99.99,,,0.00,weatherlink.com 1.10,2013-03-26 04:14:00,
2013-03-26 00:29:00,37.5,29.0,29.60,SE,126,0.0,-999.0,72,-99.99,,,0.00,weatherlink.com 1.10,2013-03-26 04:29:00,
2013-03-26 00:45:00,37.4,29.0,29.60,ESE,108,0.0,-999.0,72,-99.99,,,0.00,weatherlink.com 1.10,2013-03-26 04:45:00,
2013-03-26 01:00:00,37.1,29.0,29.60,ESE,108,0.0,-999.0,72,-99.99,,,0.00,weatherlink.com 1.10,2013-03-26 05:00:00,
2013-03-26 01:29:00,36.9,29.0,29.60,ESE,108,0.0,-999.0,72,-99.99,,,0.00,weatherlink.com 1.10,2013-03-26 05:29:00,
2013-03-26 01:44:00,36.8,29.0,29.61,SE,129,0.0,-999.0,72,-99.99,,,0.00,weatherlink.com 1.10,2013-03-26 05:44:00,
2013-03-26 01:59:00,36.7,28.0,29.61,SE,129,0.0,-999.0,72,-99.99,,,0.00,weatherlink.com 1.10,2013-03-26 05:59:00,
2013-03-26 02:15:00,36.6,28.0,29.61,SE,129,0.0,-999.0,72,-99.99,,,0.00,weatherlink.com 1.10,2013-03-26 06:15:00,
2013-03-26 02:30:00,36.4,28.0,29.61,SE,129,0.0,-999.0,72,-99.99,,,0.00,weatherlink.com 1.10,2013-03-26 06:30:00,
2013-03-26 02:45:00,36.3,28.0,29.61,SE,129,0.0,-999.0,73,-99.99,,,0.00,weatherlink.com 1.10,2013-03-26 06:45:00,
2013-03-26 03:00:00,36.0,28.0,29.61,SE,129,0.0,-999.0,73,-99.99,,,0.00,weatherlink.com 1.10,2013-03-26 07:00:00,
2013-03-26 03:15:00,35.9,28.0,29.61,SE,129,0.0,-999.0,74,-99.99,,,0.00,weatherlink.com 1.10,2013-03-26 07:15:00,
2013-03-26 03:30:00,35.7,28.0,29.61,SE,129,0.0,-999.0,74,-99.99,,,0.00,weatherlink.com 1.10,2013-03-26 07:30:00,
2013-03-26 03:45:00,35.3,28.0,29.61,SE,129,0.0,-999.0,75,-99.99,,,0.00,weatherlink.com 1.10,2013-03-26 07:45:00,
2013-03-26 04:00:00,35.0,28.0,29.61,SE,129,0.0,-999.0,76,-99.99,,,0.00,weatherlink.com 1.10,2013-03-26 08:00:00,
2013-03-26 04:15:00,34.8,28.0,29.62,SE,129,0.0,-999.0,77,-99.99,,,0.00,weatherlink.com 1.10,2013-03-26 08:15:00,
2013-03-26 04:30:00,34.7,29.0,29.62,SE,129,0.0,-999.0,78,-99.99,,,0.00,weatherlink.com 1.10,2013-03-26 08:30:00,
2013-03-26 04:45:00,34.5,29.0,29.62,SE,129,0.0,-999.0,79,-99.99,,,0.00,weatherlink.com 1.10,2013-03-26 08:45:00,
2013-03-26 05:01:00,34.3,29.0,29.62,SE,129,0.0,-999.0,80,-99.99,,,0.00,weatherlink.com 1.10,2013-03-26 09:01:00,
2013-03-26 05:15:00,34.2,29.0,29.63,SE,129,0.0,-999.0,80,-99.99,,,0.00,weatherlink.com 1.10,2013-03-26 09:15:00,
2013-03-26 05:30:00,34.0,29.0,29.63,SE,129,0.0,-999.0,81,-99.99,,,0.00,weatherlink.com 1.10,2013-03-26 09:30:00,
2013-03-26 05:45:00,34.0,29.0,29.63,SE,129,0.0,-999.0,81,-99.99,,,0.00,weatherlink.com 1.10,2013-03-26 09:45:00,
2013-03-26 06:00:00,34.1,29.0,29.64,SE,129,0.0,-999.0,81,-99.99,,,0.00,weatherlink.com 1.10,2013-03-26 10:00:00,
2013-03-26 06:17:00,34.3,29.0,29.65,SE,129,0.0,-999.0,82,-99.99,,,0.00,weatherlink.com 1.10,2013-03-26 10:17:00,
2013-03-26 06:31:00,34.4,30.0,29.65,SE,129,0.0,-999.0,83,-99.99,,,0.00,weatherlink.com 1.10,2013-03-26 10:31:00,
2013-03-26 06:46:00,34.4,30.0,29.66,SE,129,0.0,-999.0,83,-99.99,,,0.00,weatherlink.com 1.10,2013-03-26 10:46:00,
2013-03-26 07:01:00,34.3,30.0,29.66,SE,129,0.0,-999.0,83,-99.99,,,0.00,weatherlink.com 1.10,2013-03-26 11:01:00,
2013-03-26 07:16:00,34.3,29.0,29.67,SE,129,0.0,-999.0,81,-99.99,,,0.00,weatherlink.com 1.10,2013-03-26 11:16:00,
2013-03-26 07:31:00,34.7,29.0,29.68,SE,137,0.0,-999.0,78,-99.99,,,0.00,weatherlink.com 1.10,2013-03-26 11:31:00,
2013-03-26 07:46:00,35.0,28.0,29.69,SE,137,0.0,-999.0,77,-99.99,,,0.00,weatherlink.com 1.10,2013-03-26 11:46:00,
2013-03-26 08:01:00,35.1,28.0,29.70,SSE,158,0.0,-999.0,75,-99.99,,,0.00,weatherlink.com 1.10,2013-03-26 12:01:00,
2013-03-26 08:16:00,35.3,28.0,29.70,SSE,154,0.0,-999.0,75,-99.99,,,0.00,weatherlink.com 1.10,2013-03-26 12:16:00,
2013-03-26 08:31:00,35.4,28.0,29.71,ESE,107,1.0,-999.0,75,-99.99,,,0.00,weatherlink.com 1.10,2013-03-26 12:31:00,
2013-03-26 08:47:00,35.7,28.0,29.71,ESE,107,0.0,-999.0,74,-99.99,,,0.00,weatherlink.com 1.10,2013-03-26 12:47:00,
2013-03-26 09:01:00,35.7,28.0,29.71,East,92,0.0,-999.0,73,-99.99,,,0.00,weatherlink.com 1.10,2013-03-26 13:01:00,
2013-03-26 09:16:00,36.0,28.0,29.71,East,93,0.0,-999.0,72,-99.99,,,0.00,weatherlink.com 1.10,2013-03-26 13:16:00,
2013-03-26 09:31:00,36.5,30.0,29.72,East,93,0.0,-999.0,76,-99.99,,,0.00,weatherlink.com 1.10,2013-03-26 13:31:00,
2013-03-26 09:46:00,37.5,28.0,29.72,ENE,67,0.0,-999.0,69,-99.99,,,0.00,weatherlink.com 1.10,2013-03-26 13:46:00,
2013-03-26 10:01:00,38.2,28.0,29.72,East,80,0.0,-999.0,67,-99.99,,,0.00,weatherlink.com 1.10,2013-03-26 14:01:00,
2013-03-26 10:16:00,37.8,27.0,29.72,ENE,57,1.0,-999.0,66,-99.99,,,0.00,weatherlink.com 1.10,2013-03-26 14:16:00,
2013-03-26 10:31:00,38.4,28.0,29.72,ENE,69,1.0,-999.0,66,-99.99,,,0.00,weatherlink.com 1.10,2013-03-26 14:31:00,
2013-03-26 10:46:00,39.6,27.0,29.73,North,5,4.0,-999.0,62,-99.99,,,0.00,weatherlink.com 1.10,2013-03-26 14:46:00,
2013-03-26 11:01:00,41.4,27.0,29.73,NE,38,0.0,-999.0,58,-99.99,,,0.00,weatherlink.com 1.10,2013-03-26 15:01:00,
2013-03-26 11:16:00,42.3,29.0,29.73,East,96,0.0,-999.0,59,-99.99,,,0.00,weatherlink.com 1.10,2013-03-26 15:16:00,
2013-03-26 11:32:00,41.1,27.0,29.74,ENE,65,1.0,-999.0,58,-99.99,,,0.00,weatherlink.com 1.10,2013-03-26 15:32:00,
2013-03-26 11:47:00,43.9,28.0,29.74,ESE,103,1.0,-999.0,55,-99.99,,,0.00,weatherlink.com 1.10,2013-03-26 15:47:00,
2013-03-26 12:02:00,42.3,27.0,29.74,East,96,0.0,-999.0,54,-99.99,,,0.00,weatherlink.com 1.10,2013-03-26 16:02:00,
2013-03-26 12:17:00,42.3,26.0,29.74,East,83,3.0,-999.0,53,-99.99,,,0.00,weatherlink.com 1.10,2013-03-26 16:17:00,
2013-03-26 12:32:00,42.8,26.0,29.74,East,86,0.0,-999.0,51,-99.99,,,0.00,weatherlink.com 1.10,2013-03-26 16:32:00,
2013-03-26 12:47:00,43.7,26.0,29.74,East,96,1.0,-999.0,50,-99.99,,,0.00,weatherlink.com 1.10,2013-03-26 16:47:00,
2013-03-26 13:02:00,43.2,25.0,29.73,ENE,65,0.0,-999.0,49,-99.99,,,0.00,weatherlink.com 1.10,2013-03-26 17:02:00,
2013-03-26 13:17:00,43.3,25.0,29.74,East,98,1.0,-999.0,49,-99.99,,,0.00,weatherlink.com 1.10,2013-03-26 17:17:00,
2013-03-26 13:32:00,44.2,25.0,29.74,East,90,0.0,-999.0,48,-99.99,,,0.00,weatherlink.com 1.10,2013-03-26 17:32:00,
2013-03-26 13:48:00,44.1,25.0,29.74,East,84,0.0,-999.0,47,-99.99,,,0.00,weatherlink.com 1.10,2013-03-26 17:48:00,
2013-03-26 14:02:00,44.9,24.0,29.74,ESE,108,0.0,-999.0,44,-99.99,,,0.00,weatherlink.com 1.10,2013-03-26 18:02:00,
2013-03-26 14:17:00,46.4,24.0,29.73,NE,45,0.0,-999.0,42,-99.99,,,0.00,weatherlink.com 1.10,2013-03-26 18:17:00,
2013-03-26 14:33:00,47.7,25.0,29.74,ESE,105,5.0,-999.0,41,-99.99,,,0.00,weatherlink.com 1.10,2013-03-26 18:33:00,
2013-03-26 14:47:00,48.0,24.0,29.73,East,84,1.0,-999.0,39,-99.99,,,0.00,weatherlink.com 1.10,2013-03-26 18:47:00,
2013-03-26 15:02:00,48.4,24.0,29.73,East,100,0.0,-999.0,38,-99.99,,,0.00,weatherlink.com 1.10,2013-03-26 19:02:00,
2013-03-26 15:17:00,48.2,23.0,29.73,NE,52,0.0,-999.0,37,-99.99,,,0.00,weatherlink.com 1.10,2013-03-26 19:17:00,
2013-03-26 15:32:00,47.7,22.0,29.73,ESE,121,6.0,-999.0,37,-99.99,,,0.00,weatherlink.com 1.10,2013-03-26 19:32:00,
2013-03-26 15:47:00,48.3,22.0,29.73,SSW,194,0.0,-999.0,35,-99.99,,,0.00,weatherlink.com 1.10,2013-03-26 19:47:00,
2013-03-26 16:02:00,48.7,24.0,29.73,NE,38,2.0,-999.0,38,-99.99,,,0.00,weatherlink.com 1.10,2013-03-26 20:02:00,
2013-03-26 16:18:00,46.9,24.0,29.73,SE,131,0.0,-999.0,41,-99.99,,,0.00,weatherlink.com 1.10,2013-03-26 20:18:00,
2013-03-26 16:47:00,48.9,22.0,29.74,ENE,69,8.0,-999.0,35,-99.99,,,0.00,weatherlink.com 1.10,2013-03-26 20:47:00,
2013-03-26 17:02:00,47.8,22.0,29.74,NE,36,0.0,-999.0,36,-99.99,,,0.00,weatherlink.com 1.10,2013-03-26 21:02:00,
2013-03-26 17:19:00,48.5,23.0,29.74,East,93,6.0,-999.0,37,-99.99,,,0.00,weatherlink.com 1.10,2013-03-26 21:19:00,
2013-03-26 17:33:00,48.1,22.0,29.74,NNE,13,6.0,-999.0,36,-99.99,,,0.00,weatherlink.com 1.10,2013-03-26 21:33:00,
2013-03-26 17:48:00,47.0,20.0,29.74,East,84,1.0,-999.0,34,-99.99,,,0.00,weatherlink.com 1.10,2013-03-26 21:48:00,
2013-03-26 18:03:00,47.1,20.0,29.75,NE,44,0.0,-999.0,34,-99.99,,,0.00,weatherlink.com 1.10,2013-03-26 22:03:00,
2013-03-26 18:18:00,46.5,23.0,29.75,East,101,0.0,-999.0,39,-99.99,,,0.00,weatherlink.com 1.10,2013-03-26 22:18:00,
2013-03-26 18:33:00,46.1,22.0,29.76,South,184,0.0,-999.0,39,-99.99,,,0.00,weatherlink.com 1.10,2013-03-26 22:33:00,
2013-03-26 18:48:00,44.9,22.0,29.76,South,184,0.0,-999.0,41,-99.99,,,0.00,weatherlink.com 1.10,2013-03-26 22:48:00,
2013-03-26 19:03:00,43.9,23.0,29.77,South,184,0.0,-999.0,43,-99.99,,,0.00,weatherlink.com 1.10,2013-03-26 23:03:00,
2013-03-26 19:18:00,42.9,23.0,29.77,South,184,0.0,-999.0,45,-99.99,,,0.00,weatherlink.com 1.10,2013-03-26 23:18:00,
2013-03-26 19:33:00,42.0,22.0,29.78,South,184,0.0,-999.0,46,-99.99,,,0.00,weatherlink.com 1.10,2013-03-26 23:33:00,
2013-03-26 19:48:00,41.0,22.0,29.78,South,184,0.0,-999.0,48,-99.99,,,0.00,weatherlink.com 1.10,2013-03-26 23:48:00,
2013-03-26 20:03:00,40.1,23.0,29.78,South,184,0.0,-999.0,51,-99.99,,,0.00,weatherlink.com 1.10,2013-03-27 00:03:00,
2013-03-26 20:18:00,39.2,23.0,29.78,South,184,0.0,-999.0,53,-99.99,,,0.00,weatherlink.com 1.10,2013-03-27 00:18:00,
2013-03-26 20:34:00,38.3,23.0,29.79,South,184,0.0,-999.0,54,-99.99,,,0.00,weatherlink.com 1.10,2013-03-27 00:34:00,
2013-03-26 20:48:00,37.4,22.0,29.79,South,184,0.0,-999.0,55,-99.99,,,0.00,weatherlink.com 1.10,2013-03-27 00:48:00,
2013-03-26 21:03:00,37.1,22.0,29.80,South,184,0.0,-999.0,55,-99.99,,,0.00,weatherlink.com 1.10,2013-03-27 01:03:00,
2013-03-26 21:18:00,37.5,23.0,29.80,South,184,0.0,-999.0,55,-99.99,,,0.00,weatherlink.com 1.10,2013-03-27 01:18:00,
2013-03-26 21:33:00,36.8,23.0,29.80,South,184,0.0,-999.0,57,-99.99,,,0.00,weatherlink.com 1.10,2013-03-27 01:33:00,
2013-03-26 21:48:00,36.4,23.0,29.81,South,184,0.0,-999.0,58,-99.99,,,0.00,weatherlink.com 1.10,2013-03-27 01:48:00,
2013-03-26 22:03:00,36.8,22.0,29.81,South,184,0.0,-999.0,56,-99.99,,,0.00,weatherlink.com 1.10,2013-03-27 02:03:00,
2013-03-26 22:19:00,35.5,22.0,29.82,South,184,0.0,-999.0,59,-99.99,,,0.00,weatherlink.com 1.10,2013-03-27 02:19:00,
2013-03-26 22:33:00,36.0,22.0,29.82,South,184,0.0,-999.0,56,-99.99,,,0.00,weatherlink.com 1.10,2013-03-27 02:33:00,
2013-03-26 22:48:00,36.5,21.0,29.82,South,184,0.0,-999.0,54,-99.99,,,0.00,weatherlink.com 1.10,2013-03-27 02:48:00,
2013-03-26 23:03:00,35.5,21.0,29.83,South,184,0.0,-999.0,56,-99.99,,,0.00,weatherlink.com 1.10,2013-03-27 03:03:00,
2013-03-26 23:18:00,34.5,21.0,29.83,South,184,0.0,-999.0,58,-99.99,,,0.00,weatherlink.com 1.10,2013-03-27 03:18:00,
2013-03-26 23:34:00,33.9,20.0,29.84,South,184,0.0,-999.0,58,-99.99,,,0.00,weatherlink.com 1.10,2013-03-27 03:34:00,
2013-03-26 23:49:00,34.3,20.0,29.83,South,184,0.0,-999.0,56,-99.99,,,0.00,weatherlink.com 1.10,2013-03-27 03:49:00,